sensor_id;sensor_type;location;lat;lon;timestamp;pressure;altitude;pressure_sealevel;temperature;humidity
5350;BME280;2697;42.144;24.794;2023-02-04T00:00:17;153811.94;;;4.83;66.28
5350;BME280;2697;42.144;24.794;2023-02-04T00:02:42;153826.38;;;4.89;65.72
5350;BME280;2697;42.144;24.794;2023-02-04T00:05:09;153779.19;;;4.71;64.81
5350;BME280;2697;42.144;24.794;2023-02-04T00:07:35;153747.75;;;4.58;67.11
5350;BME280;2697;42.144;24.794;2023-02-04T00:10:01;153737.25;;;4.54;68.28
5350;BME280;2697;42.144;24.794;2023-02-04T00:12:26;153701.91;;;4.41;69.73
5350;BME280;2697;42.144;24.794;2023-02-04T00:14:52;153728.09;;;4.51;69.78
5350;BME280;2697;42.144;24.794;2023-02-04T00:17:17;153705.81;;;4.42;70.22
5350;BME280;2697;42.144;24.794;2023-02-04T00:19:42;153699.28;;;4.40;71.79
5350;BME280;2697;42.144;24.794;2023-02-04T00:22:08;153591.84;;;3.98;77.83
5350;BME280;2697;42.144;24.794;2023-02-04T00:24:35;153603.66;;;4.03;76.66
5350;BME280;2697;42.144;24.794;2023-02-04T00:27:01;153602.34;;;4.02;77.32
5350;BME280;2697;42.144;24.794;2023-02-04T00:29:27;153595.78;;;3.99;76.72
5350;BME280;2697;42.144;24.794;2023-02-04T00:31:52;153640.31;;;4.17;75.93
5350;BME280;2697;42.144;24.794;2023-02-04T00:34:18;153645.59;;;4.19;75.49
5350;BME280;2697;42.144;24.794;2023-02-04T00:36:43;153682.25;;;4.33;74.25
5350;BME280;2697;42.144;24.794;2023-02-04T00:39:09;153701.91;;;4.41;73.86
5350;BME280;2697;42.144;24.794;2023-02-04T00:41:34;153696.66;;;4.39;73.81
5350;BME280;2697;42.144;24.794;2023-02-04T00:43:59;153725.47;;;4.50;72.92
5350;BME280;2697;42.144;24.794;2023-02-04T00:46:25;153738.56;;;4.55;70.92
5350;BME280;2697;42.144;24.794;2023-02-04T00:48:50;153751.69;;;4.60;70.96
5350;BME280;2697;42.144;24.794;2023-02-04T00:51:16;153822.44;;;4.88;67.72
5350;BME280;2697;42.144;24.794;2023-02-04T00:53:41;153793.63;;;4.76;68.34
5350;BME280;2697;42.144;24.794;2023-02-04T00:56:06;153796.25;;;4.77;68.30
5350;BME280;2697;42.144;24.794;2023-02-04T00:58:32;153785.72;;;4.73;68.42
5350;BME280;2697;42.144;24.794;2023-02-04T01:00:57;153794.94;;;4.77;68.21
5350;BME280;2697;42.144;24.794;2023-02-04T01:03:23;153825.06;;;4.89;67.42
5350;BME280;2697;42.144;24.794;2023-02-04T01:05:48;153823.75;;;4.88;67.24
5350;BME280;2697;42.144;24.794;2023-02-04T01:08:13;153822.44;;;4.88;66.31
5350;BME280;2697;42.144;24.794;2023-02-04T01:10:39;153847.34;;;4.97;65.08
5350;BME280;2697;42.144;24.794;2023-02-04T01:13:04;153826.38;;;4.89;64.57
5350;BME280;2697;42.144;24.794;2023-02-04T01:15:30;153828.97;;;4.90;64.86
5350;BME280;2697;42.144;24.794;2023-02-04T01:17:55;153840.81;;;4.95;63.98
5350;BME280;2697;42.144;24.794;2023-02-04T01:20:20;153852.56;;;4.99;63.82
5350;BME280;2697;42.144;24.794;2023-02-04T01:22:46;153874.84;;;5.08;64.01
5350;BME280;2697;42.144;24.794;2023-02-04T01:25:11;153861.78;;;5.03;65.68
5350;BME280;2697;42.144;24.794;2023-02-04T01:27:37;153842.13;;;4.95;64.51
5350;BME280;2697;42.144;24.794;2023-02-04T01:30:04;153859.13;;;5.02;65.90
5350;BME280;2697;42.144;24.794;2023-02-04T01:32:30;153839.50;;;4.94;65.17
5350;BME280;2697;42.144;24.794;2023-02-04T01:34:55;153822.44;;;4.88;66.18
5350;BME280;2697;42.144;24.794;2023-02-04T01:37:20;153818.53;;;4.86;64.11
5350;BME280;2697;42.144;24.794;2023-02-04T01:39:46;153842.13;;;4.95;64.83
5350;BME280;2697;42.144;24.794;2023-02-04T01:42:11;153852.56;;;4.99;65.31
5350;BME280;2697;42.144;24.794;2023-02-04T01:44:36;153838.19;;;4.94;66.58
5350;BME280;2697;42.144;24.794;2023-02-04T01:47:03;153750.38;;;4.60;71.11
5350;BME280;2697;42.144;24.794;2023-02-04T01:49:29;153701.91;;;4.41;75.93
5350;BME280;2697;42.144;24.794;2023-02-04T01:51:55;153646.91;;;4.19;81.45
5350;BME280;2697;42.144;24.794;2023-02-04T01:54:21;153645.59;;;4.19;79.48
5350;BME280;2697;42.144;24.794;2023-02-04T01:56:47;153607.59;;;4.04;79.14
5350;BME280;2697;42.144;24.794;2023-02-04T01:59:15;153604.97;;;4.03;81.47
5350;BME280;2697;42.144;24.794;2023-02-04T02:01:46;153578.78;;;3.93;82.54
5350;BME280;2697;42.144;24.794;2023-02-04T02:04:15;153565.66;;;3.88;84.17
5350;BME280;2697;42.144;24.794;2023-02-04T02:07:07;153586.63;;;3.96;82.49
5350;BME280;2697;42.144;24.794;2023-02-04T02:09:34;153585.31;;;3.95;82.24
5350;BME280;2697;42.144;24.794;2023-02-04T02:12:00;153576.16;;;3.92;83.22
5350;BME280;2697;42.144;24.794;2023-02-04T02:14:27;153572.19;;;3.90;81.87
5350;BME280;2697;42.144;24.794;2023-02-04T02:16:52;153603.66;;;4.03;82.29
5350;BME280;2697;42.144;24.794;2023-02-04T02:19:31;153620.66;;;4.09;81.91
5350;BME280;2697;42.144;24.794;2023-02-04T02:22:22;153631.16;;;4.13;81.05
5350;BME280;2697;42.144;24.794;2023-02-04T02:24:49;153612.81;;;4.06;80.36
5350;BME280;2697;42.144;24.794;2023-02-04T02:27:15;153625.94;;;4.11;79.74
5350;BME280;2697;42.144;24.794;2023-02-04T02:29:41;153631.16;;;4.13;79.41
5350;BME280;2697;42.144;24.794;2023-02-04T02:32:08;153646.91;;;4.19;77.88
5350;BME280;2697;42.144;24.794;2023-02-04T02:34:35;153622.00;;;4.10;78.22
5350;BME280;2697;42.144;24.794;2023-02-04T02:37:02;153627.25;;;4.12;77.90
5350;BME280;2697;42.144;24.794;2023-02-04T02:39:28;153657.34;;;4.23;77.43
5350;BME280;2697;42.144;24.794;2023-02-04T02:41:55;153645.59;;;4.19;77.10
5350;BME280;2697;42.144;24.794;2023-02-04T02:44:20;153633.78;;;4.14;78.34
5350;BME280;2697;42.144;24.794;2023-02-04T02:46:47;153615.44;;;4.07;77.96
5350;BME280;2697;42.144;24.794;2023-02-04T02:49:17;153620.66;;;4.09;78.39
5350;BME280;2697;42.144;24.794;2023-02-04T02:51:44;153645.59;;;4.19;78.13
5350;BME280;2697;42.144;24.794;2023-02-04T02:54:30;153665.19;;;4.26;77.01
5350;BME280;2697;42.144;24.794;2023-02-04T02:56:56;153694.06;;;4.38;75.20
5350;BME280;2697;42.144;24.794;2023-02-04T02:59:24;153682.25;;;4.33;75.56
5350;BME280;2697;42.144;24.794;2023-02-04T03:01:54;153686.16;;;4.35;76.48
5350;BME280;2697;42.144;24.794;2023-02-04T03:04:22;153712.34;;;4.45;76.08
5350;BME280;2697;42.144;24.794;2023-02-04T03:06:49;153763.44;;;4.65;74.43
5350;BME280;2697;42.144;24.794;2023-02-04T03:09:16;153707.13;;;4.43;74.66
5350;BME280;2697;42.144;24.794;2023-02-04T03:11:42;153697.97;;;4.39;74.42
5350;BME280;2697;42.144;24.794;2023-02-04T03:14:07;153749.06;;;4.59;72.45
5350;BME280;2697;42.144;24.794;2023-02-04T03:16:33;153768.72;;;4.67;72.44
5350;BME280;2697;42.144;24.794;2023-02-04T03:19:02;153777.88;;;4.70;72.22
5350;BME280;2697;42.144;24.794;2023-02-04T03:21:28;153821.13;;;4.87;71.45
5350;BME280;2697;42.144;24.794;2023-02-04T03:23:53;153836.84;;;4.93;69.60
5350;BME280;2697;42.144;24.794;2023-02-04T03:26:25;153796.25;;;4.77;70.16
5350;BME280;2697;42.144;24.794;2023-02-04T03:28:55;153730.72;;;4.52;71.67
5350;BME280;2697;42.144;24.794;2023-02-04T03:31:20;153764.75;;;4.65;71.69
5350;BME280;2697;42.144;24.794;2023-02-04T03:33:46;153781.81;;;4.72;72.62
5350;BME280;2697;42.144;24.794;2023-02-04T03:36:12;153835.53;;;4.93;70.91
5350;BME280;2697;42.144;24.794;2023-02-04T03:38:37;153806.69;;;4.81;69.74
5350;BME280;2697;42.144;24.794;2023-02-04T03:41:03;153856.50;;;5.01;70.56
5350;BME280;2697;42.144;24.794;2023-02-04T03:43:28;153817.22;;;4.85;70.80
5350;BME280;2697;42.144;24.794;2023-02-04T03:45:54;153764.75;;;4.65;71.79
5350;BME280;2697;42.144;24.794;2023-02-04T03:48:19;153728.09;;;4.51;72.98
5350;BME280;2697;42.144;24.794;2023-02-04T03:50:44;153680.94;;;4.33;76.83
5350;BME280;2697;42.144;24.794;2023-02-04T03:53:10;153667.81;;;4.27;78.01
5350;BME280;2697;42.144;24.794;2023-02-04T03:55:36;153667.81;;;4.27;78.06
5350;BME280;2697;42.144;24.794;2023-02-04T03:58:02;153646.91;;;4.19;79.10
5350;BME280;2697;42.144;24.794;2023-02-04T04:00:27;153608.91;;;4.05;81.16
5350;BME280;2697;42.144;24.794;2023-02-04T04:02:53;153559.13;;;3.85;83.66
5350;BME280;2697;42.144;24.794;2023-02-04T04:05:19;153563.06;;;3.87;84.61
5350;BME280;2697;42.144;24.794;2023-02-04T04:07:44;153531.66;;;3.75;84.41
5350;BME280;2697;42.144;24.794;2023-02-04T04:10:10;153512.00;;;3.67;85.04
5350;BME280;2697;42.144;24.794;2023-02-04T04:12:35;153521.16;;;3.70;84.67
5350;BME280;2697;42.144;24.794;2023-02-04T04:15:01;153556.53;;;3.84;82.98
5350;BME280;2697;42.144;24.794;2023-02-04T04:17:27;153502.84;;;3.63;82.82
5350;BME280;2697;42.144;24.794;2023-02-04T04:19:52;153487.13;;;3.57;82.98
5350;BME280;2697;42.144;24.794;2023-02-04T04:22:18;153436.09;;;3.37;84.24
5350;BME280;2697;42.144;24.794;2023-02-04T04:24:43;153424.28;;;3.33;83.63
5350;BME280;2697;42.144;24.794;2023-02-04T04:27:09;153388.97;;;3.19;86.89
5350;BME280;2697;42.144;24.794;2023-02-04T04:29:34;153395.50;;;3.22;84.95
5350;BME280;2697;42.144;24.794;2023-02-04T04:32:00;153411.22;;;3.28;84.74
5350;BME280;2697;42.144;24.794;2023-02-04T04:34:25;153387.66;;;3.19;83.46
5350;BME280;2697;42.144;24.794;2023-02-04T04:36:51;153404.63;;;3.25;83.45
5350;BME280;2697;42.144;24.794;2023-02-04T04:39:16;153406.00;;;3.26;85.15
5350;BME280;2697;42.144;24.794;2023-02-04T04:41:41;153455.72;;;3.45;83.55
5350;BME280;2697;42.144;24.794;2023-02-04T04:44:07;153468.78;;;3.50;84.59
5350;BME280;2697;42.144;24.794;2023-02-04T04:46:33;153531.66;;;3.75;82.10
5350;BME280;2697;42.144;24.794;2023-02-04T04:48:58;153536.88;;;3.77;80.85
5350;BME280;2697;42.144;24.794;2023-02-04T04:51:24;153479.28;;;3.54;81.95
5350;BME280;2697;42.144;24.794;2023-02-04T04:53:49;153539.47;;;3.78;81.96
5350;BME280;2697;42.144;24.794;2023-02-04T04:56:15;153598.44;;;4.00;79.68
5350;BME280;2697;42.144;24.794;2023-02-04T04:58:40;153601.06;;;4.02;79.70
5350;BME280;2697;42.144;24.794;2023-02-04T05:01:06;153614.13;;;4.07;78.45
5350;BME280;2697;42.144;24.794;2023-02-04T05:03:31;153612.81;;;4.06;79.42
5350;BME280;2697;42.144;24.794;2023-02-04T05:05:56;153623.31;;;4.10;79.51
5350;BME280;2697;42.144;24.794;2023-02-04T05:08:22;153633.78;;;4.14;78.88
5350;BME280;2697;42.144;24.794;2023-02-04T05:10:47;153628.53;;;4.12;79.98
5350;BME280;2697;42.144;24.794;2023-02-04T05:13:13;153624.63;;;4.11;79.34
5350;BME280;2697;42.144;24.794;2023-02-04T05:15:39;153623.31;;;4.10;80.45
5350;BME280;2697;42.144;24.794;2023-02-04T05:18:05;153620.66;;;4.09;80.86
5350;BME280;2697;42.144;24.794;2023-02-04T05:20:30;153612.81;;;4.06;81.17
5350;BME280;2697;42.144;24.794;2023-02-04T05:22:56;153601.06;;;4.02;82.52
5350;BME280;2697;42.144;24.794;2023-02-04T05:25:25;153612.81;;;4.06;81.67
5350;BME280;2697;42.144;24.794;2023-02-04T05:27:50;153619.34;;;4.09;82.43
5350;BME280;2697;42.144;24.794;2023-02-04T05:30:16;153612.81;;;4.06;81.97
5350;BME280;2697;42.144;24.794;2023-02-04T05:32:41;153618.03;;;4.08;82.50
5350;BME280;2697;42.144;24.794;2023-02-04T05:35:07;153662.56;;;4.25;82.05
5350;BME280;2697;42.144;24.794;2023-02-04T05:37:32;153645.59;;;4.19;81.87
5350;BME280;2697;42.144;24.794;2023-02-04T05:39:58;153639.00;;;4.16;82.07
5350;BME280;2697;42.144;24.794;2023-02-04T05:42:23;153632.47;;;4.14;83.21
5350;BME280;2697;42.144;24.794;2023-02-04T05:44:49;153678.31;;;4.32;81.38
5350;BME280;2697;42.144;24.794;2023-02-04T05:47:14;153673.09;;;4.29;81.78
5350;BME280;2697;42.144;24.794;2023-02-04T05:49:40;153678.31;;;4.32;82.45
5350;BME280;2697;42.144;24.794;2023-02-04T05:52:05;153566.97;;;3.88;81.74
5350;BME280;2697;42.144;24.794;2023-02-04T05:54:31;153669.13;;;4.28;82.19
5350;BME280;2697;42.144;24.794;2023-02-04T05:56:56;153659.97;;;4.24;82.09
5350;BME280;2697;42.144;24.794;2023-02-04T05:59:22;153670.47;;;4.28;81.04
5350;BME280;2697;42.144;24.794;2023-02-04T06:01:47;153657.34;;;4.23;80.41
5350;BME280;2697;42.144;24.794;2023-02-04T06:04:12;153673.09;;;4.29;80.93
5350;BME280;2697;42.144;24.794;2023-02-04T06:06:40;153684.84;;;4.34;80.91
5350;BME280;2697;42.144;24.794;2023-02-04T06:09:06;153686.16;;;4.35;80.37
5350;BME280;2697;42.144;24.794;2023-02-04T06:11:31;153699.28;;;4.40;80.44
5350;BME280;2697;42.144;24.794;2023-02-04T06:13:56;153696.66;;;4.39;79.96
5350;BME280;2697;42.144;24.794;2023-02-04T06:16:22;153709.75;;;4.44;79.66
5350;BME280;2697;42.144;24.794;2023-02-04T06:18:47;153738.56;;;4.55;81.50
5350;BME280;2697;42.144;24.794;2023-02-04T06:21:13;153732.03;;;4.52;81.29
5350;BME280;2697;42.144;24.794;2023-02-04T06:23:38;153722.88;;;4.49;82.04
5350;BME280;2697;42.144;24.794;2023-02-04T06:26:03;153694.06;;;4.38;80.39
5350;BME280;2697;42.144;24.794;2023-02-04T06:28:29;153792.31;;;4.76;84.38
5350;BME280;2697;42.144;24.794;2023-02-04T06:30:54;153764.75;;;4.65;80.03
5350;BME280;2697;42.144;24.794;2023-02-04T06:33:20;153806.69;;;4.81;81.85
5350;BME280;2697;42.144;24.794;2023-02-04T06:35:47;153827.69;;;4.90;78.99
5350;BME280;2697;42.144;24.794;2023-02-04T06:38:12;153846.03;;;4.97;78.35
5350;BME280;2697;42.144;24.794;2023-02-04T06:40:37;153848.66;;;4.98;81.00
5350;BME280;2697;42.144;24.794;2023-02-04T06:43:03;153836.84;;;4.93;79.50
5350;BME280;2697;42.144;24.794;2023-02-04T06:45:28;153870.94;;;5.06;79.08
5350;BME280;2697;42.144;24.794;2023-02-04T06:47:53;153843.41;;;4.96;80.95
5350;BME280;2697;42.144;24.794;2023-02-04T06:50:19;153832.91;;;4.92;82.84
5350;BME280;2697;42.144;24.794;2023-02-04T06:52:45;153865.72;;;5.04;84.18
5350;BME280;2697;42.144;24.794;2023-02-04T06:55:14;153872.25;;;5.07;83.45
5350;BME280;2697;42.144;24.794;2023-02-04T06:57:40;153905.00;;;5.20;82.17
5350;BME280;2697;42.144;24.794;2023-02-04T07:00:07;153916.81;;;5.24;82.73
5350;BME280;2697;42.144;24.794;2023-02-04T07:02:33;153936.50;;;5.32;82.24
5350;BME280;2697;42.144;24.794;2023-02-04T07:04:59;153996.78;;;5.55;82.75
5350;BME280;2697;42.144;24.794;2023-02-04T07:07:26;154047.94;;;5.75;81.54
5350;BME280;2697;42.144;24.794;2023-02-04T07:09:51;154042.69;;;5.73;78.79
5350;BME280;2697;42.144;24.794;2023-02-04T07:12:17;154030.91;;;5.68;77.49
5350;BME280;2697;42.144;24.794;2023-02-04T07:14:42;154020.38;;;5.64;77.59
5350;BME280;2697;42.144;24.794;2023-02-04T07:17:08;154029.59;;;5.68;78.02
5350;BME280;2697;42.144;24.794;2023-02-04T07:19:33;154125.41;;;6.05;75.95
5350;BME280;2697;42.144;24.794;2023-02-04T07:22:00;154176.56;;;6.25;75.51
5350;BME280;2697;42.144;24.794;2023-02-04T07:24:25;154181.81;;;6.27;75.10
5350;BME280;2697;42.144;24.794;2023-02-04T07:26:51;154187.03;;;6.29;74.50
5350;BME280;2697;42.144;24.794;2023-02-04T07:29:16;154208.03;;;6.37;73.92
5350;BME280;2697;42.144;24.794;2023-02-04T07:31:45;154213.28;;;6.39;73.04
5350;BME280;2697;42.144;24.794;2023-02-04T07:34:13;154242.16;;;6.50;72.78
5350;BME280;2697;42.144;24.794;2023-02-04T07:36:39;154271.06;;;6.62;72.15
5350;BME280;2697;42.144;24.794;2023-02-04T07:39:05;154276.28;;;6.64;72.32
5350;BME280;2697;42.144;24.794;2023-02-04T07:41:31;154320.94;;;6.81;72.21
5350;BME280;2697;42.144;24.794;2023-02-04T07:43:56;154272.38;;;6.62;73.35
5350;BME280;2697;42.144;24.794;2023-02-04T07:46:22;154284.16;;;6.67;74.24
5350;BME280;2697;42.144;24.794;2023-02-04T07:48:47;154271.06;;;6.62;75.40
5350;BME280;2697;42.144;24.794;2023-02-04T07:51:12;154277.59;;;6.64;76.36
5350;BME280;2697;42.144;24.794;2023-02-04T07:53:38;154315.66;;;6.79;76.86
5350;BME280;2697;42.144;24.794;2023-02-04T07:56:03;154355.03;;;6.94;77.75
5350;BME280;2697;42.144;24.794;2023-02-04T07:58:29;154436.44;;;7.26;77.18
5350;BME280;2697;42.144;24.794;2023-02-04T08:00:54;154495.56;;;7.49;76.01
5350;BME280;2697;42.144;24.794;2023-02-04T08:03:20;154520.50;;;7.58;75.99
5350;BME280;2697;42.144;24.794;2023-02-04T08:05:45;154565.19;;;7.76;75.34
5350;BME280;2697;42.144;24.794;2023-02-04T08:08:10;154620.34;;;7.97;74.61
5350;BME280;2697;42.144;24.794;2023-02-04T08:10:36;154612.47;;;7.94;74.30
5350;BME280;2697;42.144;24.794;2023-02-04T08:13:01;154605.94;;;7.91;74.64
5350;BME280;2697;42.144;24.794;2023-02-04T08:15:27;154596.69;;;7.88;74.57
5350;BME280;2697;42.144;24.794;2023-02-04T08:17:52;154654.53;;;8.10;74.11
5350;BME280;2697;42.144;24.794;2023-02-04T08:20:18;154659.78;;;8.12;73.60
5350;BME280;2697;42.144;24.794;2023-02-04T08:22:43;154701.84;;;8.28;73.73
5350;BME280;2697;42.144;24.794;2023-02-04T08:25:10;154722.91;;;8.37;72.95
5350;BME280;2697;42.144;24.794;2023-02-04T08:27:36;154741.31;;;8.44;73.05
5350;BME280;2697;42.144;24.794;2023-02-04T08:30:03;154766.28;;;8.53;72.49
5350;BME280;2697;42.144;24.794;2023-02-04T08:32:28;154817.53;;;8.73;71.96
5350;BME280;2697;42.144;24.794;2023-02-04T08:34:56;154814.94;;;8.72;72.18
5350;BME280;2697;42.144;24.794;2023-02-04T08:37:21;154829.41;;;8.78;71.91
5350;BME280;2697;42.144;24.794;2023-02-04T08:39:46;154872.81;;;8.95;71.45
5350;BME280;2697;42.144;24.794;2023-02-04T08:42:13;154870.19;;;8.94;70.10
5350;BME280;2697;42.144;24.794;2023-02-04T08:44:39;154899.09;;;9.05;69.94
5350;BME280;2697;42.144;24.794;2023-02-04T08:47:04;154924.09;;;9.14;67.09
5350;BME280;2697;42.144;24.794;2023-02-04T08:49:30;154949.09;;;9.24;65.43
5350;BME280;2697;42.144;24.794;2023-02-04T08:51:55;154991.19;;;9.40;62.74
5350;BME280;2697;42.144;24.794;2023-02-04T08:54:21;155030.63;;;9.56;61.35
5350;BME280;2697;42.144;24.794;2023-02-04T08:56:46;155033.25;;;9.57;59.58
5350;BME280;2697;42.144;24.794;2023-02-04T08:59:11;155091.19;;;9.79;59.67
5350;BME280;2697;42.144;24.794;2023-02-04T09:01:37;155096.44;;;9.81;58.43
5350;BME280;2697;42.144;24.794;2023-02-04T09:04:02;155164.88;;;10.08;57.66
5350;BME280;2697;42.144;24.794;2023-02-04T09:06:27;155218.88;;;10.28;57.16
5350;BME280;2697;42.144;24.794;2023-02-04T09:08:53;155291.28;;;10.56;55.28
5350;BME280;2697;42.144;24.794;2023-02-04T09:11:18;155283.41;;;10.53;55.55
5350;BME280;2697;42.144;24.794;2023-02-04T09:13:44;155338.69;;;10.75;54.56
5350;BME280;2697;42.144;24.794;2023-02-04T09:16:09;155343.97;;;10.77;54.64
5350;BME280;2697;42.144;24.794;2023-02-04T09:18:36;155343.97;;;10.77;54.55
5350;BME280;2697;42.144;24.794;2023-02-04T09:21:01;155329.50;;;10.71;53.66
5350;BME280;2697;42.144;24.794;2023-02-04T09:23:27;155346.59;;;10.78;53.16
5350;BME280;2697;42.144;24.794;2023-02-04T09:25:52;155386.13;;;10.93;53.34
5350;BME280;2697;42.144;24.794;2023-02-04T09:28:18;155454.63;;;11.20;52.34
5350;BME280;2697;42.144;24.794;2023-02-04T09:30:45;155581.09;;;11.68;51.50
5350;BME280;2697;42.144;24.794;2023-02-04T09:33:12;155618.09;;;11.83;50.62
5350;BME280;2697;42.144;24.794;2023-02-04T09:35:38;155577.16;;;11.67;50.51
5350;BME280;2697;42.144;24.794;2023-02-04T09:38:04;155628.59;;;11.87;50.38
5350;BME280;2697;42.144;24.794;2023-02-04T09:40:32;155639.13;;;11.91;50.79
5350;BME280;2697;42.144;24.794;2023-02-04T09:42:59;155731.41;;;12.26;50.52
5350;BME280;2697;42.144;24.794;2023-02-04T09:45:27;155664.22;;;12.01;49.71
5350;BME280;2697;42.144;24.794;2023-02-04T09:47:55;155618.09;;;11.83;49.75
5350;BME280;2697;42.144;24.794;2023-02-04T09:50:23;155623.34;;;11.85;49.53
5350;BME280;2697;42.144;24.794;2023-02-04T09:52:50;155494.13;;;11.35;50.45
5350;BME280;2697;42.144;24.794;2023-02-04T09:55:20;155433.53;;;11.11;51.16
5350;BME280;2697;42.144;24.794;2023-02-04T09:57:46;155426.97;;;11.09;51.38
5350;BME280;2697;42.144;24.794;2023-02-04T10:02:43;155469.09;;;11.25;51.07
5350;BME280;2697;42.144;24.794;2023-02-04T10:05:16;155461.19;;;11.22;51.32
5350;BME280;2697;42.144;24.794;2023-02-04T10:07:42;155473.09;;;11.27;50.29
5350;BME280;2697;42.144;24.794;2023-02-04T10:10:20;155475.72;;;11.28;50.21
5350;BME280;2697;42.144;24.794;2023-02-04T10:12:47;155488.84;;;11.33;50.28
5350;BME280;2697;42.144;24.794;2023-02-04T10:15:16;155401.94;;;10.99;51.06
5350;BME280;2697;42.144;24.794;2023-02-04T10:17:45;155423.03;;;11.07;51.41
5350;BME280;2697;42.144;24.794;2023-02-04T10:20:15;155428.28;;;11.09;50.91
5350;BME280;2697;42.144;24.794;2023-02-04T10:22:41;155420.34;;;11.06;50.14
5350;BME280;2697;42.144;24.794;2023-02-04T10:25:15;155329.50;;;10.71;50.55
5350;BME280;2697;42.144;24.794;2023-02-04T10:27:52;155312.38;;;10.65;49.81
5350;BME280;2697;42.144;24.794;2023-02-04T10:30:29;155370.28;;;10.87;50.71
5350;BME280;2697;42.144;24.794;2023-02-04T10:32:59;155370.28;;;10.87;50.65
5350;BME280;2697;42.144;24.794;2023-02-04T10:35:44;155399.31;;;10.98;50.19
5350;BME280;2697;42.144;24.794;2023-02-04T10:38:10;155423.03;;;11.07;50.90
5350;BME280;2697;42.144;24.794;2023-02-04T10:40:35;155462.50;;;11.23;51.03
5350;BME280;2697;42.144;24.794;2023-02-04T10:43:15;155462.50;;;11.23;50.68
5350;BME280;2697;42.144;24.794;2023-02-04T10:45:46;155366.34;;;10.85;51.37
5350;BME280;2697;42.144;24.794;2023-02-04T10:48:17;155357.16;;;10.82;51.46
5350;BME280;2697;42.144;24.794;2023-02-04T10:50:44;155324.19;;;10.69;51.95
5350;BME280;2697;42.144;24.794;2023-02-04T10:53:10;155309.75;;;10.64;52.55
5350;BME280;2697;42.144;24.794;2023-02-04T10:55:56;155291.28;;;10.56;52.60
5350;BME280;2697;42.144;24.794;2023-02-04T10:58:31;155283.41;;;10.53;53.13
5350;BME280;2697;42.144;24.794;2023-02-04T11:00:57;155250.47;;;10.41;53.35
5350;BME280;2697;42.144;24.794;2023-02-04T11:03:29;155225.44;;;10.31;53.70
5350;BME280;2697;42.144;24.794;2023-02-04T11:05:57;155196.44;;;10.20;53.81
5350;BME280;2697;42.144;24.794;2023-02-04T11:08:31;155184.63;;;10.15;54.29
5350;BME280;2697;42.144;24.794;2023-02-04T11:13:37;155178.00;;;10.13;55.38
5350;BME280;2697;42.144;24.794;2023-02-04T11:18:43;155201.75;;;10.22;55.18
5350;BME280;2697;42.144;24.794;2023-02-04T11:21:24;155187.25;;;10.16;56.15
5350;BME280;2697;42.144;24.794;2023-02-04T11:24:01;155236.00;;;10.35;55.94
5350;BME280;2697;42.144;24.794;2023-02-04T11:27:17;155234.69;;;10.35;55.49
5350;BME280;2697;42.144;24.794;2023-02-04T11:29:32;155183.31;;;10.15;56.34
5350;BME280;2697;42.144;24.794;2023-02-04T11:34:47;155191.19;;;10.18;57.59
5350;BME280;2697;42.144;24.794;2023-02-04T11:37:27;155212.31;;;10.26;57.75
5350;BME280;2697;42.144;24.794;2023-02-04T11:39:59;155254.47;;;10.42;57.62
5350;BME280;2697;42.144;24.794;2023-02-04T11:42:38;155212.31;;;10.26;57.69
5350;BME280;2697;42.144;24.794;2023-02-04T11:45:16;155217.56;;;10.28;58.34
5350;BME280;2697;42.144;24.794;2023-02-04T11:47:44;155229.41;;;10.33;58.33
5350;BME280;2697;42.144;24.794;2023-02-04T11:50:34;155307.13;;;10.63;57.75
5350;BME280;2697;42.144;24.794;2023-02-04T11:52:59;155279.47;;;10.52;57.25
5350;BME280;2697;42.144;24.794;2023-02-04T11:55:30;155275.47;;;10.50;57.06
5350;BME280;2697;42.144;24.794;2023-02-04T11:57:56;155308.44;;;10.63;57.00
5350;BME280;2697;42.144;24.794;2023-02-04T12:00:28;155287.34;;;10.55;56.97
5350;BME280;2697;42.144;24.794;2023-02-04T12:03:00;155301.81;;;10.61;57.62
5350;BME280;2697;42.144;24.794;2023-02-04T12:05:45;155309.75;;;10.64;57.50
5350;BME280;2697;42.144;24.794;2023-02-04T12:13:24;155353.22;;;10.80;58.50
5350;BME280;2697;42.144;24.794;2023-02-04T12:16:04;155367.66;;;10.86;57.66
5350;BME280;2697;42.144;24.794;2023-02-04T12:18:31;155315.00;;;10.66;58.43
5350;BME280;2697;42.144;24.794;2023-02-04T12:20:58;155365.03;;;10.85;58.76
5350;BME280;2697;42.144;24.794;2023-02-04T12:23:25;155380.88;;;10.91;60.16
5350;BME280;2697;42.144;24.794;2023-02-04T12:25:51;155338.69;;;10.75;62.07
5350;BME280;2697;42.144;24.794;2023-02-04T12:28:17;155325.50;;;10.70;62.43
5350;BME280;2697;42.144;24.794;2023-02-04T12:30:42;155293.91;;;10.57;63.85
5350;BME280;2697;42.144;24.794;2023-02-04T12:33:08;155297.88;;;10.59;63.77
5350;BME280;2697;42.144;24.794;2023-02-04T12:35:33;155296.56;;;10.59;64.53
5350;BME280;2697;42.144;24.794;2023-02-04T12:37:59;155341.34;;;10.76;64.89
5350;BME280;2697;42.144;24.794;2023-02-04T12:40:24;155346.59;;;10.78;62.52
5350;BME280;2697;42.144;24.794;2023-02-04T12:42:50;155312.38;;;10.65;62.10
5350;BME280;2697;42.144;24.794;2023-02-04T12:45:16;155225.44;;;10.31;62.47
5350;BME280;2697;42.144;24.794;2023-02-04T12:47:43;155229.41;;;10.33;63.08
5350;BME280;2697;42.144;24.794;2023-02-04T12:50:10;155149.06;;;10.02;64.89
5350;BME280;2697;42.144;24.794;2023-02-04T12:52:35;155109.56;;;9.86;67.78
5350;BME280;2697;42.144;24.794;2023-02-04T12:55:02;155080.63;;;9.75;69.61
5350;BME280;2697;42.144;24.794;2023-02-04T12:57:32;155067.50;;;9.70;69.83
5350;BME280;2697;42.144;24.794;2023-02-04T12:59:58;155063.56;;;9.68;69.53
5350;BME280;2697;42.144;24.794;2023-02-04T13:02:26;155085.91;;;9.77;68.58
5350;BME280;2697;42.144;24.794;2023-02-04T13:04:52;155096.44;;;9.81;68.70
5350;BME280;2697;42.144;24.794;2023-02-04T13:07:17;155156.94;;;10.05;68.24
5350;BME280;2697;42.144;24.794;2023-02-04T13:09:43;155141.19;;;9.98;67.83
5350;BME280;2697;42.144;24.794;2023-02-04T13:12:11;155153.00;;;10.03;68.26
5350;BME280;2697;42.144;24.794;2023-02-04T13:14:40;155141.19;;;9.98;66.15
5350;BME280;2697;42.144;24.794;2023-02-04T13:17:06;155130.63;;;9.94;65.95
5350;BME280;2697;42.144;24.794;2023-02-04T13:19:33;155106.94;;;9.85;66.40
5350;BME280;2697;42.144;24.794;2023-02-04T13:21:58;155105.63;;;9.85;66.70